Nogales International Airport
KOLS : now visible

Airfield :











YOU CAN JOIN US ON...

 
LOGIN :

Register | Disclaimer

   EN    FR    IT 

 









Legend :    VFR   Marginal VFR   IFR   Intensive IFR   Very Intensive IFR
Visi :
Ceiling :
>= 8 km
>= 3000ft
5 to 8 km
1000 to 3000 ft
1500m to 5 km
500 to 1000 ft
800 to 1500m
200 to 500 ft
< 800m
< 200 ft
Symbols :   Thunderstorms  Fog  Heavy snow  Heavy precipitations  Wind > 20 kt






- Airport Elevation : 3955 ft


KOLS - Nogales International

CURRENT METAR :
  • 250409Z AUTO 15019G28KT 10SM TS SCT080 BKN090 OVC110 26/17 A3006 RMK AO2 PK WND 16028/0408 WSHFT 0342 LTG DSNT SE-SW TSB03 T02610167

EXPIRED METARs :
  • 250354Z AUTO 15012G23KT 10SM VCTS BKN080 27/17 A3006 RMK AO2 PK WND 13028/0344 LTG DSNT E-SW SLP106 T02670167
  • 250254Z AUTO 31004KT 10SM CLR 29/18 A3001 RMK AO2 SLP089 T02890183 53017
  • 250154Z AUTO 27004KT 10SM CLR 31/17 A2998 RMK AO2 LTG DSNT W-NE TSB0055E10 SLP076 T03110167
  • 250116Z AUTO 28006KT 10SM CLR 31/17 A2996 RMK AO2 LTG DSNT E AND W TSB0055E10 T03110167
  • 250101Z AUTO 25013G20KT 10SM TS CLR 32/16 A2997 RMK AO2 LTG DSNT E AND SE AND W TSB0055 T03170161
  • 242354Z AUTO 27009G16KT 10SM VCTS CLR 34/16 A2996 RMK AO2 LTG DSNT E AND S SLP066 T03440156 10356 20283 56020

TAF KOLS
Valid from the 25 at 04:00 until the 26 at 00:00 UTC


250359Z 2504/2524 28006KT P6SM VCTS SCT080 BKN100CB
TEMPO 2504/2506 VRB20G35KT 5SM -TSRA BKN080CB
FM250900 16009KT P6SM SCT100 BKN250
KZAB FIR / North America



MET'MAP, your aeronautical weather chart ! - Copyright ORBIFLY December 2007 - Disclaimer

ORBIFLY MET'MAP TEAM :

Programming & Development : Alexandra Zaïnal
Original concept : Baudouin d'Aumeries
Technical & hardware support : Manuel Goepfert
Assistance : Marc-Olivier Méhu




SOURCES & CREDITS :

   NOAA       Earth
Advisory